Time;durP1;ratioP1;P1;durP2;ratioP2;P2;SDS_P1;SDS_P2;PMS_P1;PMS_P2;Temp;Humidity;BMP_temperature;BMP_pressure;BME280_temperature;BME280_humidity;BME280_pressure;Samples;Min_cycle;Max_cycle;Signal;HPM_P1;HPM_P2
2023/05/17 00:01:55;;;;;;;12.07;2.80;;;;;;;17.45;100.00;96707.56;5035619;28;20036;-76
2023/05/17 00:04:21;;;;;;;7.85;2.75;;;;;;;17.41;100.00;96714.34;5052274;28;20557;-75
2023/05/17 00:06:46;;;;;;;6.05;2.80;;;;;;;17.31;100.00;96717.97;5052219;28;20037;-76
2023/05/17 00:09:12;;;;;;;10.30;3.25;;;;;;;17.35;100.00;96723.88;5052234;28;20029;-76
2023/05/17 00:11:38;;;;;;;6.80;3.10;;;;;;;17.29;100.00;96719.13;5052450;28;20033;-76
2023/05/17 00:14:03;;;;;;;8.93;2.80;;;;;;;17.22;100.00;96718.06;5052022;28;20553;-75
2023/05/17 00:16:29;;;;;;;7.68;2.88;;;;;;;17.18;100.00;96720.22;5035580;28;20170;-74
2023/05/17 00:18:54;;;;;;;4.57;2.80;;;;;;;17.23;100.00;96725.16;5052005;28;20031;-75
2023/05/17 00:21:20;;;;;;;6.93;2.75;;;;;;;17.17;100.00;96733.88;5035539;28;20392;-77
2023/05/17 00:23:45;;;;;;;6.13;2.70;;;;;;;17.07;100.00;96719.63;5035344;28;20078;-77
2023/05/17 00:26:12;;;;;;;9.13;2.70;;;;;;;17.03;100.00;96729.88;5052149;28;20025;-76
2023/05/17 00:28:38;;;;;;;17.42;3.17;;;;;;;17.05;100.00;96735.13;5052991;28;20068;-76
2023/05/17 00:31:03;;;;;;;9.25;3.33;;;;;;;17.00;100.00;96741.00;5050643;28;20060;-75
2023/05/17 00:33:29;;;;;;;11.93;2.80;;;;;;;17.01;100.00;96728.34;5053135;28;20481;-76
2023/05/17 00:35:54;;;;;;;8.07;3.00;;;;;;;16.95;100.00;96724.38;5051529;28;20071;-76
2023/05/17 00:38:20;;;;;;;6.72;2.42;;;;;;;16.97;100.00;96717.00;5052870;28;20515;-76
2023/05/17 00:40:45;;;;;;;10.15;2.80;;;;;;;16.98;100.00;96723.25;5051704;28;20036;-76
2023/05/17 00:43:11;;;;;;;13.48;3.28;;;;;;;16.98;100.00;96731.34;5052733;28;20021;-75
2023/05/17 00:45:36;;;;;;;18.20;2.97;;;;;;;16.93;100.00;96737.22;5052723;28;20559;-76
2023/05/17 00:48:02;;;;;;;7.30;2.92;;;;;;;16.80;100.00;96740.28;5034765;28;20060;-76
2023/05/17 00:50:27;;;;;;;16.95;3.78;;;;;;;16.80;100.00;96740.28;5051357;28;20033;-75
2023/05/17 00:52:54;;;;;;;10.13;3.15;;;;;;;16.69;100.00;96737.81;5051865;28;20408;-75
2023/05/17 00:55:20;;;;;;;7.45;3.13;;;;;;;16.55;100.00;96735.63;5034725;28;20028;-75
2023/05/17 00:57:45;;;;;;;12.15;3.10;;;;;;;16.50;100.00;96739.75;5051306;28;20484;-74
2023/05/17 01:00:12;;;;;;;6.60;2.85;;;;;;;16.56;100.00;96722.97;5051185;28;20033;-74
2023/05/17 01:02:37;;;;;;;8.82;3.55;;;;;;;16.59;100.00;96731.63;5052751;28;20060;-76
2023/05/17 01:05:03;;;;;;;11.75;3.40;;;;;;;16.52;100.00;96717.00;5051427;28;20589;-77
2023/05/17 01:07:29;;;;;;;12.50;3.88;;;;;;;16.44;100.00;96719.63;5051115;28;20551;-76
2023/05/17 01:09:54;;;;;;;15.35;3.13;;;;;;;16.41;100.00;96722.63;5051233;28;20036;-77
2023/05/17 01:12:50;;;;;;;8.55;3.15;;;;;;;16.31;100.00;96720.94;5055077;28;20028;-76
2023/05/17 01:15:22;;;;;;;10.38;3.60;;;;;;;16.35;100.00;96722.38;5057735;28;20016;-75
2023/05/17 01:17:56;;;;;;;7.22;2.83;;;;;;;16.48;100.00;96718.31;5074556;28;20016;-76
2023/05/17 01:20:27;;;;;;;11.45;3.15;;;;;;;16.52;100.00;96710.78;5074231;28;20518;-75
2023/05/17 01:23:15;;;;;;;7.67;3.20;;;;;;;16.54;100.00;96706.94;5074458;28;20546;-75
2023/05/17 01:26:11;;;;;;;15.15;3.40;;;;;;;16.61;100.00;96728.78;5092191;28;20092;-76
2023/05/17 01:28:37;;;;;;;11.38;3.00;;;;;;;16.51;100.00;96707.22;5092201;28;20032;-75
2023/05/17 01:31:03;;;;;;;8.07;3.10;;;;;;;16.49;100.00;96725.41;5073884;28;20028;-74
2023/05/17 01:33:29;;;;;;;8.05;2.92;;;;;;;16.45;100.00;96723.16;5073990;28;20032;-76
2023/05/17 01:35:55;;;;;;;13.90;4.25;;;;;;;16.40;100.00;96736.25;5074011;28;20020;-75
2023/05/17 01:38:20;;;;;;;10.57;3.40;;;;;;;16.30;100.00;96724.69;5057191;28;20023;-76
2023/05/17 01:41:12;;;;;;;13.18;3.60;;;;;;;16.22;100.00;96725.41;5092182;28;20028;-76
2023/05/17 01:44:01;;;;;;;7.88;3.40;;;;;;;16.12;100.00;96721.91;5086114;28;20019;-76
2023/05/17 01:46:32;;;;;;;10.95;3.70;;;;;;;16.15;100.00;96718.94;5056907;28;20020;-74
2023/05/17 01:49:17;;;;;;;10.20;3.85;;;;;;;16.19;100.00;96723.00;5073841;28;20016;-75
2023/05/17 01:52:03;;;;;;;12.38;4.85;;;;;;;16.21;100.00;96729.94;5057010;28;20032;-75
2023/05/17 01:54:31;;;;;;;12.65;3.85;;;;;;;16.20;100.00;96735.50;5073730;28;20051;-76
2023/05/17 01:56:58;;;;;;;11.90;4.13;;;;;;;16.25;100.00;96746.69;5073789;28;20458;-75
2023/05/17 01:59:24;;;;;;;12.23;5.15;;;;;;;16.37;100.00;96732.00;5056960;28;20118;-76
2023/05/17 02:01:55;;;;;;;15.10;4.25;;;;;;;16.67;100.00;96733.56;5073681;28;20129;-75
2023/05/17 02:04:21;;;;;;;11.60;4.77;;;;;;;16.83;100.00;96736.41;5070849;28;20114;-76
2023/05/17 02:06:46;;;;;;;8.10;4.30;;;;;;;17.01;100.00;96726.47;5073370;28;20115;-77
2023/05/17 02:09:12;;;;;;;8.45;4.22;;;;;;;17.02;100.00;96728.19;5056767;28;20406;-75
2023/05/17 02:11:37;;;;;;;8.20;4.63;;;;;;;17.06;100.00;96728.72;5056445;28;20024;-76
2023/05/17 02:14:03;;;;;;;15.18;6.13;;;;;;;17.03;100.00;96719.06;5073190;28;20044;-76
2023/05/17 02:16:28;;;;;;;12.70;6.03;;;;;;;16.98;100.00;96724.06;5056394;28;20114;-75
2023/05/17 02:18:54;;;;;;;12.65;6.20;;;;;;;16.95;100.00;96729.78;5073392;28;20382;-75
2023/05/17 02:21:19;;;;;;;14.70;6.30;;;;;;;16.93;100.00;96736.34;5072926;28;20051;-77
2023/05/17 02:23:45;;;;;;;15.05;6.30;;;;;;;16.89;100.00;96732.28;5073357;28;20110;-76
2023/05/17 02:26:10;;;;;;;11.50;5.97;;;;;;;16.92;100.00;96743.59;5073144;28;20024;-75
2023/05/17 02:28:36;;;;;;;14.70;6.50;;;;;;;16.88;100.00;96734.13;5072947;28;20039;-76
2023/05/17 02:31:01;;;;;;;10.30;7.00;;;;;;;16.86;100.00;96738.81;5091414;28;20028;-76
2023/05/17 02:33:27;;;;;;;10.90;6.63;;;;;;;16.76;100.00;96738.88;5073287;28;20032;-76
2023/05/17 02:35:52;;;;;;;17.10;7.32;;;;;;;16.74;100.00;96751.69;5056623;28;20106;-74
2023/05/17 02:38:18;;;;;;;19.17;8.15;;;;;;;16.73;100.00;96744.59;5073272;28;20453;-75
2023/05/17 02:40:43;;;;;;;16.33;8.15;;;;;;;16.70;100.00;96739.50;5056217;28;20039;-76
2023/05/17 02:43:09;;;;;;;13.45;6.97;;;;;;;16.73;100.00;96744.59;5091018;28;20032;-76
2023/05/17 02:45:35;;;;;;;20.80;8.73;;;;;;;16.73;100.00;96746.47;5072718;28;20038;-75
2023/05/17 02:48:00;;;;;;;17.60;8.55;;;;;;;16.74;100.00;96743.59;5090913;28;20024;-75
2023/05/17 02:50:26;;;;;;;16.38;8.85;;;;;;;16.67;100.00;96756.00;5072790;28;20491;-75
2023/05/17 02:52:51;;;;;;;15.02;8.98;;;;;;;16.68;100.00;96741.50;5072871;28;20031;-74
2023/05/17 02:55:17;;;;;;;18.85;9.25;;;;;;;16.69;100.00;96753.16;5072090;28;20028;-74
2023/05/17 02:57:42;;;;;;;14.23;8.38;;;;;;;16.65;100.00;96752.63;5072713;28;20372;-74
2023/05/17 03:00:08;;;;;;;17.25;8.18;;;;;;;16.55;100.00;96754.50;5072920;28;20081;-75
2023/05/17 03:02:34;;;;;;;18.17;8.50;;;;;;;16.63;100.00;96751.06;5072782;28;20055;-76
2023/05/17 03:04:59;;;;;;;14.18;8.80;;;;;;;16.65;100.00;96762.56;5072686;28;20077;-76
2023/05/17 03:07:25;;;;;;;17.42;8.55;;;;;;;16.64;100.00;96761.72;5072780;28;20111;-79
2023/05/17 03:09:50;;;;;;;15.27;8.50;;;;;;;16.63;100.00;96760.03;5056113;28;20028;-76
2023/05/17 03:12:15;;;;;;;16.02;7.90;;;;;;;16.64;100.00;96767.13;5072528;28;20036;-75
2023/05/17 03:14:41;;;;;;;17.77;8.63;;;;;;;16.65;100.00;96766.13;5072820;28;20036;-75
2023/05/17 03:17:06;;;;;;;13.73;8.73;;;;;;;16.64;100.00;96769.00;5072763;28;20020;-76
2023/05/17 03:19:32;;;;;;;12.68;8.25;;;;;;;16.59;100.00;96761.31;5072454;28;20480;-76
2023/05/17 03:21:57;;;;;;;14.20;7.97;;;;;;;16.59;100.00;96779.38;5090922;28;20068;-75
2023/05/17 03:24:23;;;;;;;17.70;8.75;;;;;;;16.59;100.00;96768.56;5055951;28;20039;-78
2023/05/17 03:26:48;;;;;;;17.67;8.88;;;;;;;16.57;100.00;96765.19;5055754;28;20035;-75
2023/05/17 03:29:14;;;;;;;21.50;9.25;;;;;;;16.58;100.00;96781.22;5072447;28;20028;-76
2023/05/17 03:31:39;;;;;;;16.50;7.55;;;;;;;16.53;100.00;96780.81;5069800;28;20027;-75
2023/05/17 03:34:05;;;;;;;14.02;5.85;;;;;;;16.36;100.00;96776.22;5055851;28;20027;-75
2023/05/17 03:36:33;;;;;;;14.93;5.60;;;;;;;16.27;100.00;96771.72;5072995;28;20403;-76
2023/05/17 03:38:58;;;;;;;10.20;5.78;;;;;;;16.09;100.00;96773.47;5072593;28;20020;-76
2023/05/17 03:41:24;;;;;;;14.63;5.30;;;;;;;16.06;100.00;96793.50;5072487;28;20063;-76
2023/05/17 03:43:49;;;;;;;26.75;9.25;;;;;;;15.98;100.00;96789.84;5072633;28;20019;-76
2023/05/17 03:46:15;;;;;;;14.93;6.68;;;;;;;15.99;100.00;96794.25;5055412;28;20205;-76
2023/05/17 03:48:40;;;;;;;8.75;5.63;;;;;;;16.05;100.00;96807.16;5072181;28;20028;-77
2023/05/17 03:51:06;;;;;;;13.70;5.93;;;;;;;16.02;100.00;96812.84;5090038;28;20043;-76
2023/05/17 03:53:31;;;;;;;10.35;5.80;;;;;;;16.09;100.00;96805.84;5090855;28;20051;-76
2023/05/17 03:55:57;;;;;;;14.18;6.05;;;;;;;16.17;100.00;96816.75;5055611;28;20073;-77
2023/05/17 03:58:22;;;;;;;19.17;7.40;;;;;;;16.22;100.00;96819.84;5055422;28;20032;-77
2023/05/17 04:00:48;;;;;;;11.90;6.50;;;;;;;16.21;100.00;96829.78;5072684;28;20024;-76
2023/05/17 04:03:13;;;;;;;17.55;6.88;;;;;;;16.23;100.00;96832.38;5072275;28;20558;-78
2023/05/17 04:05:40;;;;;;;11.50;6.03;;;;;;;16.24;100.00;96823.28;5073484;28;20028;-79
2023/05/17 04:08:05;;;;;;;15.30;6.20;;;;;;;16.19;100.00;96822.84;5059406;28;20028;-78
2023/05/17 04:10:31;;;;;;;11.00;6.78;;;;;;;16.27;100.00;96823.00;5075902;28;20035;-78
2023/05/17 04:12:56;;;;;;;21.10;7.05;;;;;;;16.28;100.00;96836.31;5076198;28;20490;-78
2023/05/17 04:15:22;;;;;;;12.27;7.72;;;;;;;16.36;100.00;96837.44;5075644;28;20024;-79
2023/05/17 04:17:47;;;;;;;14.63;8.70;;;;;;;16.43;100.00;96839.38;5075835;28;20545;-78
2023/05/17 04:20:13;;;;;;;14.25;7.80;;;;;;;16.53;100.00;96828.53;5058771;28;20062;-78
2023/05/17 04:22:38;;;;;;;24.15;10.57;;;;;;;16.58;100.00;96819.03;5075886;28;20032;-77
2023/05/17 04:25:04;;;;;;;19.65;6.90;;;;;;;16.65;100.00;96841.72;5093646;28;20027;-77
2023/05/17 04:27:30;;;;;;;12.77;6.07;;;;;;;16.58;100.00;96840.63;5075192;28;20028;-80
2023/05/17 04:29:56;;;;;;;13.65;5.97;;;;;;;16.56;100.00;96849.88;5059002;28;20424;-77
2023/05/17 04:32:21;;;;;;;21.20;6.07;;;;;;;16.53;100.00;96847.44;5076064;28;20024;-74
2023/05/17 04:34:47;;;;;;;21.95;8.48;;;;;;;16.65;100.00;96847.13;5093662;28;20098;-79
2023/05/17 04:37:12;;;;;;;19.85;8.48;;;;;;;16.76;100.00;96846.09;5058877;28;20463;-78
2023/05/17 04:39:38;;;;;;;22.98;7.95;;;;;;;16.91;100.00;96846.44;5058787;28;20048;-76
2023/05/17 04:42:04;;;;;;;15.35;7.53;;;;;;;17.01;100.00;96841.84;5075014;28;20089;-77
2023/05/17 04:44:30;;;;;;;21.75;7.07;;;;;;;17.19;100.00;96851.66;5075147;28;21490;-79
2023/05/17 04:46:55;;;;;;;13.05;6.53;;;;;;;17.31;100.00;96830.66;5075130;28;20036;-79
2023/05/17 04:49:21;;;;;;;25.77;7.13;;;;;;;17.32;100.00;96832.34;5058120;28;20032;-78
2023/05/17 04:51:46;;;;;;;26.95;7.32;;;;;;;17.45;100.00;96830.09;5074908;28;20039;-79
2023/05/17 04:54:12;;;;;;;17.48;7.75;;;;;;;17.40;100.00;96827.03;5058250;28;20056;-78
2023/05/17 04:56:37;;;;;;;18.33;7.15;;;;;;;17.45;100.00;96824.69;5072095;28;20419;-78
2023/05/17 04:59:03;;;;;;;24.80;7.38;;;;;;;17.62;100.00;96823.88;5074872;28;20243;-79
2023/05/17 05:01:31;;;;;;;17.35;6.95;;;;;;;17.68;100.00;96825.13;5074633;28;20036;-79
2023/05/17 05:03:57;;;;;;;17.38;7.80;;;;;;;17.76;100.00;96825.16;5075262;28;20461;-78
2023/05/17 05:06:23;;;;;;;22.95;8.77;;;;;;;17.72;100.00;96835.44;5074504;28;20077;-78
2023/05/17 05:08:48;;;;;;;17.40;8.23;;;;;;;17.96;100.00;96815.88;5058031;28;20058;-79
2023/05/17 05:11:14;;;;;;;17.98;7.00;;;;;;;18.19;100.00;96819.72;5092617;28;20092;-78
2023/05/17 05:13:41;;;;;;;15.43;7.63;;;;;;;18.37;100.00;96820.50;5074052;28;20040;-79
2023/05/17 05:16:07;;;;;;;17.05;8.10;;;;;;;18.67;100.00;96835.41;5074643;28;20016;-78
2023/05/17 05:18:32;;;;;;;17.02;7.20;;;;;;;19.09;100.00;96826.44;5073052;28;20036;-78
2023/05/17 05:20:58;;;;;;;15.63;7.68;;;;;;;19.32;100.00;96819.34;5074084;28;20055;-78
2023/05/17 05:23:24;;;;;;;13.00;6.90;;;;;;;19.93;100.00;96824.38;5057093;28;20074;-77
2023/05/17 05:25:49;;;;;;;16.15;7.45;;;;;;;20.39;100.00;96822.81;5092304;28;20024;-78
2023/05/17 05:28:15;;;;;;;18.48;6.88;;;;;;;20.98;100.00;96810.50;5057256;28;20488;-78
2023/05/17 05:30:40;;;;;;;39.67;19.83;;;;;;;21.03;100.00;96803.53;5073857;28;20028;-78
2023/05/17 05:33:06;;;;;;;22.52;7.60;;;;;;;21.03;100.00;96800.81;5057182;28;20058;-78
2023/05/17 05:35:31;;;;;;;29.88;10.27;;;;;;;21.26;100.00;96803.59;5057189;28;20024;-78
2023/05/17 05:37:57;;;;;;;23.73;12.93;;;;;;;20.84;100.00;96806.66;5092574;28;20397;-80
2023/05/17 05:40:23;;;;;;;17.13;9.65;;;;;;;20.71;100.00;96817.25;5057971;28;20484;-78
2023/05/17 05:42:48;;;;;;;20.67;7.80;;;;;;;20.79;100.00;96822.69;5074394;28;20544;-77
2023/05/17 05:45:14;;;;;;;40.63;20.40;;;;;;;21.04;100.00;96818.78;5074535;28;20032;-78
2023/05/17 05:47:40;;;;;;;21.27;8.35;;;;;;;21.44;100.00;96816.94;5074025;28;20032;-79
2023/05/17 05:50:07;;;;;;;36.67;16.35;;;;;;;21.38;100.00;96807.59;5092178;28;20028;-80
2023/05/17 05:52:32;;;;;;;19.30;7.90;;;;;;;21.24;100.00;96805.66;5091950;28;20066;-78
2023/05/17 05:54:58;;;;;;;18.38;7.78;;;;;;;21.54;100.00;96806.63;5074071;28;20396;-79
2023/05/17 05:57:24;;;;;;;30.52;13.98;;;;;;;22.33;100.00;96817.06;5073735;28;20035;-79
2023/05/17 05:59:49;;;;;;;21.33;10.80;;;;;;;23.27;91.06;96820.88;5073398;28;20031;-79
2023/05/17 06:02:16;;;;;;;13.40;6.85;;;;;;;23.87;86.12;96818.63;5091857;28;20476;-78
2023/05/17 06:04:42;;;;;;;12.60;5.90;;;;;;;24.52;83.56;96820.25;5074088;28;20042;-78
2023/05/17 06:07:07;;;;;;;12.52;6.65;;;;;;;24.94;78.45;96811.09;5073462;28;20040;-80
2023/05/17 06:09:33;;;;;;;12.25;6.68;;;;;;;25.65;75.48;96820.69;5091706;28;20105;-80
2023/05/17 06:11:59;;;;;;;20.92;7.90;;;;;;;26.41;70.32;96816.56;5074107;28;20028;-80
2023/05/17 06:14:25;;;;;;;19.83;6.90;;;;;;;26.72;64.77;96807.66;5057336;28;20060;-80
2023/05/17 06:16:51;;;;;;;16.63;7.00;;;;;;;26.56;66.42;96802.63;5073598;28;20407;-79
2023/05/17 06:19:16;;;;;;;16.23;6.60;;;;;;;26.58;65.75;96800.53;5074071;28;20073;-79
2023/05/17 06:21:42;;;;;;;15.10;6.90;;;;;;;25.72;69.67;96799.59;5073660;28;20492;-80
2023/05/17 06:24:08;;;;;;;13.23;6.75;;;;;;;25.65;70.74;96804.25;5074176;28;20406;-78
2023/05/17 06:26:34;;;;;;;81.30;44.33;;;;;;;26.38;68.33;96817.84;5073350;28;20111;-78
2023/05/17 06:28:59;;;;;;;15.65;7.13;;;;;;;27.05;64.17;96815.84;5072500;28;20028;-78
2023/05/17 06:31:25;;;;;;;13.35;6.38;;;;;;;26.71;63.19;96811.44;5091630;28;20479;-78
2023/05/17 06:33:50;;;;;;;18.77;7.07;;;;;;;26.78;63.50;96809.56;5091483;28;20074;-78
2023/05/17 06:36:16;;;;;;;14.98;6.75;;;;;;;26.28;64.94;96802.84;5073371;28;20024;-79
2023/05/17 06:38:42;;;;;;;57.42;34.15;;;;;;;25.78;69.94;96805.09;5056794;28;20458;-78
2023/05/17 06:41:07;;;;;;;16.50;8.00;;;;;;;25.04;74.13;96798.72;5056511;28;20024;-79
2023/05/17 06:43:33;;;;;;;26.52;11.70;;;;;;;24.21;81.94;96810.56;5056775;28;20020;-78
2023/05/17 06:45:58;;;;;;;19.13;7.57;;;;;;;24.34;82.41;96814.44;5073503;28;20454;-79
2023/05/17 06:48:24;;;;;;;41.95;23.48;;;;;;;24.36;83.58;96824.16;5091357;28;20089;-79
2023/05/17 06:50:49;;;;;;;17.60;6.45;;;;;;;24.70;83.86;96831.56;5056249;28;20086;-79
2023/05/17 06:53:15;;;;;;;23.58;8.00;;;;;;;24.27;84.02;96826.16;5073102;28;20028;-79
2023/05/17 06:55:41;;;;;;;18.63;6.68;;;;;;;25.25;81.96;96842.41;5073128;28;20553;-80
2023/05/17 06:58:07;;;;;;;16.38;6.78;;;;;;;25.83;75.30;96831.88;5073402;28;20043;-80
2023/05/17 07:00:33;;;;;;;15.50;6.72;;;;;;;25.84;74.52;96826.19;5073161;28;20032;-79
2023/05/17 07:02:58;;;;;;;9.18;5.60;;;;;;;27.08;66.72;96835.47;5072917;28;20111;-81
2023/05/17 07:05:24;;;;;;;14.27;5.88;;;;;;;28.37;57.42;96822.34;5056598;28;20051;-81
2023/05/17 07:07:49;;;;;;;12.30;6.15;;;;;;;28.09;58.43;96820.03;5073074;28;20024;-82
2023/05/17 07:10:15;;;;;;;12.82;5.80;;;;;;;27.69;57.84;96802.06;5073583;28;20111;-83
2023/05/17 07:12:41;;;;;;;12.57;6.60;;;;;;;28.25;57.30;96816.72;5073141;28;20075;-82
2023/05/17 07:15:06;;;;;;;19.85;9.70;;;;;;;28.42;54.33;96804.13;5072938;28;20028;-83
2023/05/17 07:17:32;;;;;;;21.77;8.18;;;;;;;28.67;52.65;96792.28;5056439;28;20115;-81
2023/05/17 07:19:58;;;;;;;12.90;5.22;;;;;;;27.01;53.18;96757.75;5073272;28;20336;-80
2023/05/17 07:22:23;;;;;;;27.48;16.33;;;;;;;27.36;56.38;96778.31;5090915;28;20035;-80
2023/05/17 07:24:48;;;;;;;23.50;10.75;;;;;;;26.45;60.89;96770.34;5072810;28;20024;-81
2023/05/17 07:27:14;;;;;;;13.45;5.22;;;;;;;25.60;66.04;96774.72;5072870;28;20028;-82
2023/05/17 07:29:41;;;;;;;20.38;6.82;;;;;;;25.87;68.70;96783.84;5091064;28;20035;-82
2023/05/17 07:32:08;;;;;;;14.18;5.25;;;;;;;26.27;63.78;96788.28;5072901;28;20024;-81
2023/05/17 07:34:34;;;;;;;10.57;5.28;;;;;;;26.14;62.85;96779.19;5056212;28;20024;-81
2023/05/17 07:37:00;;;;;;;16.10;5.40;;;;;;;26.70;61.66;96798.81;5072540;28;20012;-78
2023/05/17 07:39:25;;;;;;;11.88;4.95;;;;;;;26.90;58.67;96788.66;5090689;28;20131;-79
2023/05/17 07:41:51;;;;;;;11.77;5.50;;;;;;;26.46;60.06;96780.25;5075141;28;20046;-80
2023/05/17 07:44:16;;;;;;;23.33;5.65;;;;;;;25.81;61.61;96759.97;5076530;28;20394;-79
2023/05/17 07:46:42;;;;;;;23.65;7.45;;;;;;;25.76;63.33;96774.31;5059578;28;20027;-79
2023/05/17 07:49:07;;;;;;;12.25;6.70;;;;;;;25.31;68.42;96775.03;5059221;28;20031;-79
2023/05/17 07:51:33;;;;;;;16.52;5.00;;;;;;;25.32;62.56;96761.13;5075966;28;20028;-78
2023/05/17 07:54:01;;;;;;;15.50;6.65;;;;;;;25.85;61.37;96780.44;5075689;28;20024;-79
2023/05/17 07:56:27;;;;;;;10.50;5.28;;;;;;;26.17;61.97;96785.16;5075870;28;20038;-79
2023/05/17 07:58:53;;;;;;;10.98;5.32;;;;;;;26.49;60.92;96782.59;5076179;28;20023;-79
2023/05/17 08:01:19;;;;;;;8.18;5.13;;;;;;;26.47;60.50;96777.31;5075862;28;21142;-79
2023/05/17 08:03:46;;;;;;;12.32;5.43;;;;;;;27.36;58.22;96794.81;5076486;28;20028;-79
2023/05/17 08:06:16;;;;;;;15.65;5.88;;;;;;;27.96;56.07;96790.66;5076395;28;20181;-79
2023/05/17 08:08:42;;;;;;;11.68;5.88;;;;;;;28.17;54.76;96797.75;5059039;28;20107;-79
2023/05/17 08:11:08;;;;;;;9.85;5.50;;;;;;;27.98;55.65;96791.31;5075951;28;20020;-79
2023/05/17 08:13:34;;;;;;;12.43;5.57;;;;;;;27.59;55.85;96774.22;5075735;28;20652;-79
2023/05/17 08:16:02;;;;;;;15.18;5.22;;;;;;;27.21;55.68;96757.69;5059063;28;20034;-79
2023/05/17 08:18:29;;;;;;;13.00;5.82;;;;;;;27.84;54.64;96780.63;5093761;28;20107;-80
2023/05/17 08:20:55;;;;;;;21.13;13.15;;;;;;;27.75;55.93;96781.94;5093929;28;20380;-80
2023/05/17 08:23:21;;;;;;;15.23;6.80;;;;;;;28.17;53.48;96778.50;5075636;28;20024;-78
2023/05/17 08:25:46;;;;;;;9.93;6.03;;;;;;;28.71;52.09;96785.22;5059211;28;20156;-81
2023/05/17 08:28:12;;;;;;;17.38;7.85;;;;;;;29.59;49.55;96787.38;5075281;28;20039;-78
2023/05/17 08:30:37;;;;;;;12.48;5.70;;;;;;;30.09;48.02;96776.91;5075862;28;20035;-80
2023/05/17 08:33:02;;;;;;;13.70;5.63;;;;;;;28.60;50.07;96741.91;5058910;28;20483;-80
2023/05/17 08:35:28;;;;;;;10.10;6.10;;;;;;;28.32;52.49;96747.91;5075530;28;20032;-80
2023/05/17 08:37:54;;;;;;;12.75;5.22;;;;;;;28.53;52.52;96755.72;5059856;28;20411;-79
2023/05/17 08:40:20;;;;;;;16.15;5.72;;;;;;;28.82;51.63;96751.44;5093500;28;20027;-80
2023/05/17 08:42:46;;;;;;;15.57;5.68;;;;;;;28.27;53.13;96759.56;5075207;28;20093;-79
2023/05/17 08:45:12;;;;;;;10.95;5.60;;;;;;;27.95;54.28;96750.50;5058371;28;20464;-79
2023/05/17 08:47:39;;;;;;;12.20;5.40;;;;;;;27.59;56.91;96755.00;5058537;28;20120;-80
2023/05/17 08:50:06;;;;;;;14.85;6.32;;;;;;;28.49;55.32;96771.84;5074818;28;20035;-79
2023/05/17 08:52:32;;;;;;;18.02;5.55;;;;;;;29.16;53.70;96777.53;5073906;28;20024;-79
2023/05/17 08:55:04;;;;;;;11.50;5.68;;;;;;;29.41;52.93;96773.63;5075053;28;20028;-80
2023/05/17 08:57:31;;;;;;;14.88;5.90;;;;;;;29.12;54.53;96763.38;5075786;28;20095;-79
2023/05/17 08:59:58;;;;;;;11.13;6.75;;;;;;;29.50;54.45;96768.66;5075235;28;20077;-79
2023/05/17 09:02:24;;;;;;;12.05;6.65;;;;;;;29.68;53.63;96773.28;5075291;28;20480;-79
2023/05/17 09:04:54;;;;;;;12.32;5.13;;;;;;;30.33;50.33;96772.25;5075122;28;20480;-79
2023/05/17 09:07:22;;;;;;;14.65;6.38;;;;;;;29.91;50.90;96757.66;5092934;28;20043;-79
2023/05/17 09:09:52;;;;;;;18.70;6.80;;;;;;;29.96;52.37;96756.97;5093017;28;20028;-79
2023/05/17 09:12:18;;;;;;;30.13;9.48;;;;;;;29.91;53.64;96757.66;5074310;28;20024;-79
2023/05/17 09:14:44;;;;;;;25.67;7.15;;;;;;;29.26;56.65;96758.56;5074499;28;20067;-79
2023/05/17 09:17:15;;;;;;;23.42;8.35;;;;;;;28.90;56.87;96754.72;5092632;28;20019;-79
2023/05/17 09:19:45;;;;;;;15.90;7.28;;;;;;;28.60;58.80;96752.91;5058504;28;20548;-80
2023/05/17 09:22:17;;;;;;;11.73;6.18;;;;;;;28.21;63.71;96759.66;5057643;28;20020;-79
2023/05/17 09:24:43;;;;;;;39.75;17.73;;;;;;;27.78;67.47;96759.53;5074578;28;20031;-79
2023/05/17 09:27:14;;;;;;;18.13;8.52;;;;;;;27.59;70.76;96772.34;5057945;28;20051;-80
2023/05/17 09:29:39;;;;;;;13.60;6.40;;;;;;;27.48;70.72;96773.00;5074567;28;20020;-80
2023/05/17 09:32:31;;;;;;;18.08;8.07;;;;;;;27.33;74.19;96778.75;5074867;28;20028;-79
2023/05/17 09:34:58;;;;;;;12.30;6.38;;;;;;;27.17;72.88;96764.66;5063907;28;20044;-79
2023/05/17 09:37:25;;;;;;;13.05;5.97;;;;;;;26.83;75.70;96769.44;5074420;28;20028;-79
2023/05/17 09:39:50;;;;;;;14.65;7.15;;;;;;;26.63;79.03;96776.88;5074381;28;20123;-79
2023/05/17 09:42:16;;;;;;;20.08;7.35;;;;;;;26.27;81.67;96771.84;5074275;28;20447;-80
2023/05/17 09:44:46;;;;;;;15.13;7.40;;;;;;;25.91;82.75;96771.38;5074571;28;20035;-80
2023/05/17 09:47:27;;;;;;;13.18;7.07;;;;;;;25.61;86.05;96794.72;5074379;28;20055;-80
2023/05/17 09:49:59;;;;;;;13.13;6.60;;;;;;;25.23;87.20;96792.47;5051064;28;20414;-79
2023/05/17 09:52:30;;;;;;;17.85;6.53;;;;;;;24.93;89.50;96793.81;5057385;28;20506;-80
2023/05/17 09:54:59;;;;;;;20.17;7.40;;;;;;;24.59;91.57;96802.84;5058020;28;20036;-79
2023/05/17 09:57:36;;;;;;;13.02;7.03;;;;;;;24.04;97.14;96802.81;5074023;28;20028;-80
2023/05/17 10:00:06;;;;;;;23.50;8.85;;;;;;;23.82;100.00;96840.22;5074225;28;20043;-78
2023/05/17 10:02:32;;;;;;;17.27;8.02;;;;;;;23.22;100.00;96860.50;5074737;28;20032;-78
2023/05/17 10:04:59;;;;;;;24.75;9.45;;;;;;;22.73;100.00;96859.44;5074159;28;20407;-80
2023/05/17 10:07:25;;;;;;;22.70;10.52;;;;;;;22.47;100.00;96853.53;5057668;28;20418;-79
2023/05/17 10:09:53;;;;;;;24.60;9.77;;;;;;;22.03;100.00;96850.69;5074280;28;20028;-80
2023/05/17 10:12:22;;;;;;;32.95;12.52;;;;;;;21.44;100.00;96865.91;5057423;28;20028;-80
2023/05/17 10:14:48;;;;;;;24.10;11.93;;;;;;;20.87;100.00;96860.69;5049148;28;20104;-79
2023/05/17 10:17:14;;;;;;;24.27;13.48;;;;;;;20.54;100.00;96878.13;5073936;28;20078;-79
2023/05/17 10:19:40;;;;;;;21.50;11.88;;;;;;;20.11;100.00;96873.91;5091695;28;20028;-79
2023/05/17 10:22:06;;;;;;;23.20;11.40;;;;;;;19.62;100.00;96864.91;5074339;28;20023;-80
2023/05/17 10:24:35;;;;;;;20.85;11.13;;;;;;;19.33;100.00;96891.56;5056774;28;20495;-79
2023/05/17 10:27:01;;;;;;;19.70;11.23;;;;;;;19.12;100.00;96899.31;5073884;28;20052;-81
2023/05/17 10:29:27;;;;;;;20.95;11.77;;;;;;;18.83;100.00;96911.38;5073783;28;20426;-79
2023/05/17 10:31:53;;;;;;;24.63;13.15;;;;;;;18.73;100.00;96918.78;5057135;28;20020;-80
2023/05/17 10:34:19;;;;;;;23.67;13.20;;;;;;;18.68;100.00;96948.22;5057127;28;20031;-80
2023/05/17 10:36:45;;;;;;;20.77;12.50;;;;;;;18.46;100.00;96943.28;5057011;28;20024;-80
2023/05/17 10:39:11;;;;;;;32.25;13.38;;;;;;;18.27;100.00;96954.31;5073556;28;20024;-81
2023/05/17 10:41:41;;;;;;;1.85;1.58;;;;;;;17.93;100.00;96961.47;5072704;28;20036;-81
2023/05/17 10:44:09;;;;;;;1.30;1.23;;;;;;;17.78;100.00;96986.31;5073053;28;20020;-81
2023/05/17 10:46:35;;;;;;;2.22;0.93;;;;;;;17.62;100.00;96999.69;5072775;28;20028;-81
2023/05/17 10:49:01;;;;;;;8.20;2.40;;;;;;;17.46;100.00;97007.59;5074175;28;20484;-82
2023/05/17 10:51:36;;;;;;;4.22;1.15;;;;;;;17.21;100.00;97024.50;5073889;28;20036;-82
2023/05/17 10:54:01;;;;;;;0.98;0.75;;;;;;;16.91;100.00;97046.38;5067500;28;20442;-84
2023/05/17 10:56:29;;;;;;;0.98;0.68;;;;;;;16.69;100.00;97045.69;5073140;28;20032;-85
2023/05/17 10:59:20;;;;;;;2.20;1.45;;;;;;;16.60;100.00;97049.28;5056321;28;20051;-84
2023/05/17 11:01:58;;;;;;;3.08;1.50;;;;;;;16.40;100.00;97052.06;5072771;28;20028;-83
2023/05/17 11:04:42;;;;;;;1.88;1.00;;;;;;;16.33;100.00;97072.56;5072851;28;20028;-83
2023/05/17 11:07:16;;;;;;;3.53;1.33;;;;;;;16.28;100.00;97084.63;5050179;28;20453;-82
2023/05/17 11:09:48;;;;;;;3.35;1.77;;;;;;;16.25;100.00;97087.59;5090343;28;20530;-82
2023/05/17 11:12:15;;;;;;;0.82;0.82;;;;;;;16.30;100.00;97114.19;5072800;28;20024;-82
2023/05/17 11:14:43;;;;;;;1.65;1.40;;;;;;;16.33;100.00;97129.25;5055786;28;20083;-83
2023/05/17 11:17:16;;;;;;;9.75;1.98;;;;;;;16.35;100.00;97128.09;5075715;28;20110;-83
2023/05/17 11:19:57;;;;;;;2.17;1.48;;;;;;;16.25;100.00;97127.22;5058563;28;20503;-82